东航MU765航班事故塔台录音(求翻译)

By maverick0760 at 178.6天前 • 2565点击

2017年05月24日上午10点49分,东航MU765航班于香港赤腊角国际机场降落着地后冲出跑道,事故并未造成人员伤亡。事发时,珠三角地区正受到暴雨袭击,香港天文台发出红色暴雨警告信号。
以下是事发时的METAR码
VHHH 240212Z 31013KT 280V340 1200 0600E R07R/P2000D R25L/P2000D R07L/1500D R25R/1400D +TSRA +SHRA FEW010CB SCT025 25/25 Q1007 TEMPO 1600 TSRA SHRA FEW010CB SCT020

录音里有飞机要转飞澳门,四边五边还有几架在落,空管是一名女性,听她的声音也急了。希望字幕组能翻译。。

塔台录音:TWR_NORTH
https://pan.baidu.com/s/1nvHQDfF
提取码:set4

目前尚无回复
登录 后发表评论